createdAt,value
2018-08-31T00:19:07.100Z,10.02
2018-08-31T00:19:07.122Z,8.41
2018-08-31T00:19:07.137Z,8.41
2018-08-31T00:19:07.157Z,8.41
2018-08-31T00:25:02.080Z,9.8
2018-08-31T00:30:57.098Z,10.88
2018-08-31T00:36:52.100Z,10.9
2018-08-31T00:42:47.136Z,13.77
2018-08-31T00:48:42.099Z,14.37
2018-08-31T00:54:37.127Z,12.33
2018-08-31T01:00:32.107Z,9.45
2018-08-31T01:06:27.133Z,9.27
2018-08-31T01:12:22.095Z,10.35
2018-08-31T01:18:17.101Z,10.72
2018-08-31T01:24:12.138Z,9.49
2018-08-31T01:30:07.123Z,10.5
2018-08-31T01:36:02.155Z,12.23
2018-08-31T01:41:57.181Z,9.44
2018-08-31T01:47:52.122Z,9.28
2018-08-31T01:53:47.125Z,13.28
2018-08-31T01:59:42.103Z,9.38
2018-08-31T02:05:37.152Z,9.23
2018-08-31T02:11:32.136Z,10.87
2018-08-31T02:17:27.118Z,9.56
2018-08-31T02:23:22.117Z,10.22
2018-08-31T02:29:17.143Z,8.53
2018-08-31T02:35:12.143Z,9.54
2018-08-31T02:41:07.146Z,11.7
2018-08-31T02:47:02.150Z,10.18
2018-08-31T02:52:57.148Z,10.05
2018-08-31T03:22:32.157Z,8.38
2018-08-31T03:22:32.209Z,9.11
2018-08-31T03:22:32.218Z,9.11
2018-08-31T03:22:32.261Z,9.11
2018-08-31T03:28:27.219Z,11.53
2018-08-31T03:34:22.162Z,10.48
2018-08-31T03:40:17.160Z,7.57
2018-08-31T03:46:12.145Z,8.87
2018-08-31T03:52:07.164Z,10.02
2018-08-31T03:58:02.147Z,11.71
2018-08-31T04:03:57.179Z,10.78
2018-08-31T04:09:52.169Z,8.46
2018-08-31T04:15:47.182Z,8.41
2018-08-31T04:21:42.198Z,9.57
2018-08-31T04:27:37.178Z,10.77
2018-08-31T04:33:32.158Z,9.87
2018-08-31T04:39:27.178Z,15.47
2018-08-31T04:45:22.182Z,13.06
2018-08-31T04:51:17.189Z,15.49
2018-08-31T04:57:12.246Z,14.21
2018-08-31T05:03:07.228Z,15.14
2018-08-31T05:09:02.183Z,13.89
2018-08-31T05:14:57.186Z,14.26
2018-08-31T05:20:52.168Z,12.49
2018-08-31T05:26:47.181Z,14.03
2018-08-31T05:32:42.187Z,13.32
2018-08-31T05:38:37.232Z,13.34
2018-08-31T05:44:32.196Z,11.11
2018-08-31T05:50:27.196Z,10.55
2018-08-31T05:56:22.242Z,13.47
2018-08-31T06:20:02.215Z,11.17
2018-08-31T06:20:02.248Z,10.71
2018-08-31T06:20:02.298Z,10.71
2018-08-31T06:20:02.424Z,10.71
2018-08-31T06:25:57.223Z,13.52
2018-08-31T06:31:52.239Z,14.41
2018-08-31T06:37:47.260Z,12.92
2018-08-31T06:43:42.268Z,11.46
2018-08-31T06:49:37.227Z,14.18
2018-08-31T06:55:32.223Z,11.89
2018-08-31T07:01:27.223Z,12.14
2018-08-31T07:07:22.205Z,12.59
2018-08-31T07:13:17.215Z,12.66
2018-08-31T07:19:12.219Z,12.99
2018-08-31T07:25:07.220Z,10.41
2018-08-31T07:31:02.264Z,10.26
2018-08-31T07:36:57.269Z,13.09
2018-08-31T07:42:52.218Z,10.17
2018-08-31T07:48:47.223Z,15.63
2018-08-31T07:54:42.233Z,12.48
2018-08-31T08:00:37.286Z,15.38
2018-08-31T08:06:32.244Z,13.87
2018-08-31T08:12:27.222Z,11.7
2018-08-31T08:18:22.235Z,11.4
2018-08-31T08:24:17.281Z,16.48
2018-08-31T08:30:12.308Z,11.78
2018-08-31T08:36:07.321Z,18.03
2018-08-31T08:42:02.320Z,11.71
2018-08-31T08:47:57.257Z,13.5
2018-08-31T08:53:52.249Z,12.82
2018-08-31T08:59:47.273Z,10.1
2018-08-31T09:23:27.252Z,11.85
2018-08-31T09:23:27.436Z,10.47
2018-08-31T09:23:27.438Z,13.5
2018-08-31T09:23:27.554Z,13.5
2018-08-31T09:29:22.284Z,15.23
2018-08-31T09:35:17.268Z,14.13
2018-08-31T09:41:12.277Z,10.04
2018-08-31T09:47:07.287Z,12.2
2018-08-31T09:53:02.275Z,9.47
2018-08-31T09:58:57.297Z,9.24
2018-08-31T10:04:52.313Z,12.14
2018-08-31T10:10:47.379Z,9.94
2018-08-31T10:16:42.295Z,11.01
2018-08-31T10:22:37.318Z,9.46
2018-08-31T10:28:32.365Z,9.19
2018-08-31T10:34:27.391Z,9.62
2018-08-31T10:40:22.407Z,8.98
2018-08-31T10:46:17.316Z,7.9
2018-08-31T10:52:12.387Z,8.07
2018-08-31T10:58:07.338Z,9.7
2018-08-31T11:04:02.305Z,10.67
2018-08-31T11:09:57.308Z,9.2
2018-08-31T11:15:52.296Z,7.58
2018-08-31T11:21:47.326Z,12.2
2018-08-31T11:27:42.336Z,12.31
2018-08-31T11:33:37.328Z,9.92
2018-08-31T11:39:32.389Z,10.97
2018-08-31T11:45:27.357Z,12.28
2018-08-31T11:51:22.310Z,10.41
2018-08-31T11:57:17.352Z,10.77
2018-08-31T12:20:57.409Z,12.05
2018-08-31T12:20:57.433Z,9.49
2018-08-31T12:20:57.433Z,9.49
2018-08-31T12:20:57.525Z,9.49
2018-08-31T12:26:52.394Z,8.23
2018-08-31T12:32:47.387Z,7.37
2018-08-31T13:14:25.550Z,9.8
2018-08-31T13:20:20.527Z,6.84
2018-08-31T13:26:15.543Z,6.56
2018-08-31T13:32:10.577Z,6
2018-08-31T13:38:05.604Z,8.5
2018-08-31T13:44:00.569Z,5.2
2018-08-31T13:49:55.598Z,5.33
2018-08-31T13:55:50.525Z,4.72
2018-08-31T14:01:45.591Z,4.99
2018-08-31T14:07:40.591Z,4.6
2018-08-31T14:13:35.545Z,5.88
2018-08-31T14:19:30.556Z,4.99
2018-08-31T14:25:25.564Z,6.28
2018-08-31T14:31:20.574Z,3.95
2018-08-31T14:37:15.558Z,6.7
2018-08-31T14:43:10.543Z,6.81
2018-08-31T14:49:05.629Z,5.47
2018-08-31T14:55:00.567Z,7.71
2018-08-31T15:00:55.576Z,8.13
2018-08-31T15:06:50.583Z,11.78
2018-08-31T15:12:45.586Z,9.93
2018-08-31T15:18:40.574Z,8
2018-08-31T15:24:35.590Z,10.83
2018-08-31T15:30:30.571Z,11.14
2018-08-31T15:36:25.593Z,15
2018-08-31T15:42:20.680Z,16.57
2018-08-31T15:48:15.598Z,12.8
2018-08-31T15:54:10.597Z,16.64
2018-08-31T16:00:05.577Z,18.12
2018-08-31T16:06:00.664Z,14.54
2018-08-31T16:11:55.592Z,18.96
2018-08-31T16:17:50.650Z,13.36
2018-08-31T16:23:45.593Z,14.86
2018-08-31T16:29:40.589Z,12.54
2018-08-31T16:35:35.672Z,12.9
2018-08-31T16:41:30.719Z,18.29
2018-08-31T16:47:25.807Z,15.63
2018-08-31T16:53:20.638Z,15.18
2018-08-31T16:59:15.621Z,12.52
2018-08-31T17:05:10.647Z,13.03
2018-08-31T17:11:05.662Z,14.28
2018-08-31T17:17:00.621Z,13.43
2018-08-31T17:22:55.673Z,15.03
2018-08-31T17:28:50.632Z,21.21
2018-08-31T17:34:45.665Z,15.05
2018-08-31T17:40:40.603Z,25.65
2018-08-31T17:46:35.635Z,12.63
2018-08-31T17:52:30.621Z,14.66
2018-08-31T17:58:25.683Z,12.82
2018-08-31T18:10:15.649Z,11.32
2018-08-31T18:10:15.704Z,16.4
2018-08-31T18:16:10.694Z,12.84
2018-08-31T18:22:05.639Z,12.8
2018-08-31T18:28:00.655Z,14.42
2018-08-31T18:33:55.673Z,15.83
2018-08-31T18:39:50.668Z,14.11
2018-08-31T18:45:45.645Z,17.73
2018-08-31T18:51:40.669Z,14.08
2018-08-31T18:57:35.674Z,17.97
2018-08-31T19:03:30.660Z,14.94
2018-08-31T19:09:25.648Z,16.01
2018-08-31T19:15:20.651Z,15.87
2018-08-31T19:21:15.665Z,18.18
2018-08-31T19:27:10.646Z,14.74
2018-08-31T19:33:05.674Z,19.87
2018-08-31T19:39:00.660Z,17.69
2018-08-31T19:44:55.669Z,22.09
2018-08-31T19:50:50.694Z,14.03
2018-08-31T19:56:45.724Z,20.54
2018-08-31T20:02:40.690Z,13.62
2018-08-31T20:08:35.653Z,13.92
2018-08-31T20:14:30.678Z,17
2018-08-31T20:20:25.699Z,15.13
2018-08-31T20:26:20.712Z,14.09
2018-08-31T20:32:15.691Z,15.77
2018-08-31T20:38:10.684Z,18.8
2018-08-31T20:44:05.705Z,15.85
2018-08-31T20:50:00.680Z,16.09
2018-08-31T20:55:55.680Z,14.14
2018-08-31T21:01:50.690Z,12.28
2018-08-31T21:07:45.696Z,16.51
2018-08-31T21:13:40.699Z,18.62
2018-08-31T21:19:35.690Z,17.24
2018-08-31T21:25:30.704Z,12.25
2018-08-31T21:31:25.708Z,15.46
2018-08-31T21:37:20.700Z,16.37
2018-08-31T21:43:15.705Z,22.75
2018-08-31T21:49:10.742Z,16.8
2018-08-31T21:55:05.703Z,11.83
2018-08-31T22:01:00.708Z,16.18
2018-08-31T22:06:55.697Z,21.17
2018-08-31T22:12:50.733Z,13.13
2018-08-31T22:18:45.741Z,20.81
2018-08-31T22:24:40.766Z,17.05
2018-08-31T22:30:35.719Z,19.66
2018-08-31T22:36:30.706Z,14.87
2018-08-31T22:42:25.831Z,14.13
2018-08-31T22:48:20.758Z,17.53
2018-08-31T22:54:15.717Z,17.06
2018-08-31T23:00:10.752Z,14.22
2018-08-31T23:06:05.721Z,14.27
2018-08-31T23:12:00.727Z,14.23
2018-08-31T23:17:55.722Z,16.1
2018-08-31T23:23:50.731Z,17.63
2018-08-31T23:29:45.724Z,16.76
2018-08-31T23:35:40.741Z,14.18
2018-08-31T23:41:35.742Z,17.58
2018-08-31T23:47:30.715Z,15.93
2018-08-31T23:53:25.732Z,13.78
2018-08-31T23:59:20.738Z,13.5
